GMART EGHQ-EGHH
Flight info
| Callsign | GMART |
|---|---|
| Flight time | 1h 10m |
| Altitude | 2500 |
| Route | EGHQ / EGHD / SANDBANKS VRP / EGHH |
| Aircraft | C172/L-VGD/C |
Departure
| Time | 2026-05-05 17:53 |
|---|---|
| Airport | Cornwall Airport Newquay (EGHQ) |
Arrival
| Time | 2026-05-05 19:04 |
|---|---|
| Airport | Bournemouth Airport (EGHH) |
| Time | Latitude | Longitude | Altitude | Speed | Heading |
|---|---|---|---|---|---|
| 2026-05-05 17:30 | 50.43763 | -4.99407 | 364 ft | 0 kts | 272° |
| 2026-05-05 17:48 | 50.43764 | -4.99428 | 363 ft | 7 kts | 279° |
| 2026-05-05 17:48 | 50.43817 | -4.99505 | 367 ft | 10 kts | 340° |
| 2026-05-05 17:49 | 50.43872 | -4.99514 | 375 ft | 5 kts | 1° |
| 2026-05-05 17:49 | 50.43906 | -4.99512 | 374 ft | 0 kts | 5° |
| 2026-05-05 17:50 | 50.43932 | -4.99510 | 374 ft | 0 kts | 4° |
| 2026-05-05 17:50 | 50.43943 | -4.99509 | 374 ft | 0 kts | 3° |
| 2026-05-05 17:52 | 50.43944 | -4.99509 | 374 ft | 1 kts | 3° |
| 2026-05-05 17:52 | 50.44024 | -4.99501 | 374 ft | 15 kts | 5° |
| 2026-05-05 17:52 | 50.44096 | -4.99589 | 374 ft | 28 kts | 299° |
| 2026-05-05 17:52 | 50.44302 | -5.00142 | 410 ft | 79 kts | 299° |
| 2026-05-05 17:53 | 50.44573 | -5.00964 | 622 ft | 89 kts | 298° |
| 2026-05-05 17:53 | 50.44882 | -5.01834 | 834 ft | 94 kts | 298° |
| 2026-05-05 17:53 | 50.45326 | -5.02605 | 1027 ft | 98 kts | 332° |
| 2026-05-05 17:53 | 50.45984 | -5.02759 | 1219 ft | 98 kts | 12° |
| 2026-05-05 17:54 | 50.46543 | -5.02204 | 1408 ft | 97 kts | 52° |
| 2026-05-05 17:54 | 50.46743 | -5.01199 | 1600 ft | 97 kts | 85° |
| 2026-05-05 17:54 | 50.46684 | -5.00152 | 1799 ft | 97 kts | 96° |
| 2026-05-05 17:54 | 50.46592 | -4.99114 | 2003 ft | 96 kts | 93° |
| 2026-05-05 17:55 | 50.46537 | -4.98078 | 2208 ft | 95 kts | 92° |
| 2026-05-05 17:55 | 50.46485 | -4.97039 | 2412 ft | 95 kts | 92° |
| 2026-05-05 17:55 | 50.46434 | -4.95995 | 2536 ft | 103 kts | 92° |
| 2026-05-05 17:55 | 50.46375 | -4.94809 | 2511 ft | 114 kts | 93° |
| 2026-05-05 17:56 | 50.46313 | -4.93548 | 2505 ft | 116 kts | 93° |
| 2026-05-05 17:56 | 50.46249 | -4.92285 | 2504 ft | 116 kts | 93° |
| 2026-05-05 17:56 | 50.46185 | -4.91006 | 2504 ft | 117 kts | 93° |
| 2026-05-05 17:56 | 50.46121 | -4.89739 | 2503 ft | 117 kts | 93° |
| 2026-05-05 17:57 | 50.46057 | -4.88474 | 2503 ft | 117 kts | 93° |
| 2026-05-05 17:57 | 50.45993 | -4.87201 | 2504 ft | 117 kts | 93° |
| 2026-05-05 17:57 | 50.45929 | -4.85933 | 2504 ft | 118 kts | 93° |
| 2026-05-05 17:57 | 50.45864 | -4.84638 | 2504 ft | 119 kts | 93° |
| 2026-05-05 17:58 | 50.45798 | -4.83332 | 2504 ft | 120 kts | 93° |
| 2026-05-05 17:58 | 50.45731 | -4.82023 | 2504 ft | 119 kts | 93° |
| 2026-05-05 17:58 | 50.45665 | -4.80734 | 2504 ft | 119 kts | 93° |
| 2026-05-05 17:58 | 50.45599 | -4.79440 | 2503 ft | 119 kts | 93° |
| 2026-05-05 17:59 | 50.45533 | -4.78136 | 2504 ft | 119 kts | 93° |
| 2026-05-05 17:59 | 50.45466 | -4.76843 | 2504 ft | 119 kts | 93° |
| 2026-05-05 17:59 | 50.45400 | -4.75553 | 2503 ft | 119 kts | 93° |
| 2026-05-05 17:59 | 50.45334 | -4.74243 | 2504 ft | 119 kts | 93° |
| 2026-05-05 18:00 | 50.45267 | -4.72948 | 2503 ft | 119 kts | 93° |
| 2026-05-05 18:00 | 50.45201 | -4.71659 | 2502 ft | 119 kts | 93° |
| 2026-05-05 18:00 | 50.45134 | -4.70364 | 2501 ft | 119 kts | 93° |
| 2026-05-05 18:00 | 50.45066 | -4.69057 | 2500 ft | 119 kts | 93° |
| 2026-05-05 18:01 | 50.44999 | -4.67763 | 2500 ft | 119 kts | 93° |
| 2026-05-05 18:01 | 50.44933 | -4.66463 | 2501 ft | 119 kts | 93° |
| 2026-05-05 18:01 | 50.44865 | -4.65170 | 2498 ft | 119 kts | 93° |
| 2026-05-05 18:01 | 50.44797 | -4.63883 | 2498 ft | 119 kts | 93° |
| 2026-05-05 18:02 | 50.44730 | -4.62583 | 2498 ft | 119 kts | 93° |
| 2026-05-05 18:02 | 50.44662 | -4.61286 | 2497 ft | 119 kts | 93° |
| 2026-05-05 18:02 | 50.44594 | -4.59991 | 2495 ft | 119 kts | 93° |
| 2026-05-05 18:02 | 50.44526 | -4.58703 | 2495 ft | 119 kts | 93° |
| 2026-05-05 18:03 | 50.44458 | -4.57411 | 2495 ft | 119 kts | 93° |
| 2026-05-05 18:03 | 50.44390 | -4.56107 | 2495 ft | 119 kts | 93° |
| 2026-05-05 18:03 | 50.44322 | -4.54816 | 2495 ft | 119 kts | 93° |
| 2026-05-05 18:03 | 50.44254 | -4.53522 | 2494 ft | 119 kts | 93° |
| 2026-05-05 18:04 | 50.44185 | -4.52224 | 2493 ft | 119 kts | 93° |
| 2026-05-05 18:04 | 50.44117 | -4.50925 | 2492 ft | 119 kts | 93° |
| 2026-05-05 18:04 | 50.44047 | -4.49622 | 2492 ft | 119 kts | 93° |
| 2026-05-05 18:04 | 50.43979 | -4.48329 | 2494 ft | 119 kts | 93° |
| 2026-05-05 18:05 | 50.43910 | -4.47041 | 2493 ft | 119 kts | 93° |
| 2026-05-05 18:05 | 50.43840 | -4.45734 | 2494 ft | 119 kts | 93° |
| 2026-05-05 18:05 | 50.43771 | -4.44439 | 2495 ft | 119 kts | 93° |
| 2026-05-05 18:05 | 50.43702 | -4.43154 | 2496 ft | 119 kts | 93° |
| 2026-05-05 18:06 | 50.43632 | -4.41847 | 2497 ft | 119 kts | 93° |
| 2026-05-05 18:06 | 50.43587 | -4.40997 | 2496 ft | 119 kts | 93° |
| 2026-05-05 18:06 | 50.43493 | -4.39260 | 2497 ft | 119 kts | 93° |
| 2026-05-05 18:06 | 50.43424 | -4.37975 | 2498 ft | 119 kts | 93° |
| 2026-05-05 18:07 | 50.43354 | -4.36666 | 2499 ft | 119 kts | 93° |
| 2026-05-05 18:07 | 50.43284 | -4.35376 | 2500 ft | 119 kts | 93° |
| 2026-05-05 18:07 | 50.43214 | -4.34076 | 2500 ft | 119 kts | 94° |
| 2026-05-05 18:07 | 50.43143 | -4.32772 | 2501 ft | 119 kts | 94° |
| 2026-05-05 18:08 | 50.43073 | -4.31484 | 2501 ft | 119 kts | 94° |
| 2026-05-05 18:08 | 50.43009 | -4.30187 | 2503 ft | 119 kts | 93° |
| 2026-05-05 18:08 | 50.42952 | -4.28890 | 2503 ft | 119 kts | 93° |
| 2026-05-05 18:08 | 50.42896 | -4.27585 | 2505 ft | 119 kts | 93° |
| 2026-05-05 18:09 | 50.42839 | -4.26284 | 2504 ft | 119 kts | 93° |
| 2026-05-05 18:09 | 50.42783 | -4.24994 | 2506 ft | 119 kts | 93° |
| 2026-05-05 18:09 | 50.42726 | -4.23692 | 2504 ft | 119 kts | 93° |
| 2026-05-05 18:09 | 50.42670 | -4.22407 | 2503 ft | 119 kts | 93° |
| 2026-05-05 18:10 | 50.42613 | -4.21104 | 2501 ft | 119 kts | 93° |
| 2026-05-05 18:10 | 50.42556 | -4.19803 | 2500 ft | 119 kts | 93° |
| 2026-05-05 18:10 | 50.42499 | -4.18510 | 2498 ft | 119 kts | 93° |
| 2026-05-05 18:10 | 50.42442 | -4.17213 | 2497 ft | 119 kts | 93° |
| 2026-05-05 18:11 | 50.42385 | -4.15923 | 2495 ft | 119 kts | 93° |
| 2026-05-05 18:11 | 50.42327 | -4.14612 | 2496 ft | 119 kts | 93° |
| 2026-05-05 18:11 | 50.42270 | -4.13328 | 2493 ft | 119 kts | 93° |
| 2026-05-05 18:11 | 50.42211 | -4.12022 | 2492 ft | 119 kts | 93° |
| 2026-05-05 18:12 | 50.42153 | -4.10735 | 2492 ft | 119 kts | 93° |
| 2026-05-05 18:12 | 50.42185 | -4.09451 | 2489 ft | 119 kts | 70° |
| 2026-05-05 18:12 | 50.42636 | -4.08378 | 2492 ft | 119 kts | 54° |
| 2026-05-05 18:12 | 50.43123 | -4.07310 | 2487 ft | 119 kts | 54° |
| 2026-05-05 18:13 | 50.43605 | -4.06255 | 2485 ft | 119 kts | 54° |
| 2026-05-05 18:13 | 50.44088 | -4.05197 | 2483 ft | 119 kts | 54° |
| 2026-05-05 18:13 | 50.44571 | -4.04139 | 2480 ft | 119 kts | 54° |
| 2026-05-05 18:13 | 50.45052 | -4.03083 | 2479 ft | 119 kts | 54° |
| 2026-05-05 18:14 | 50.45534 | -4.02013 | 2479 ft | 119 kts | 55° |
| 2026-05-05 18:14 | 50.46004 | -4.00945 | 2475 ft | 119 kts | 55° |
| 2026-05-05 18:14 | 50.46476 | -3.99869 | 2473 ft | 119 kts | 55° |
| 2026-05-05 18:14 | 50.46945 | -3.98799 | 2474 ft | 119 kts | 55° |
| 2026-05-05 18:15 | 50.47414 | -3.97728 | 2473 ft | 119 kts | 55° |
| 2026-05-05 18:15 | 50.47882 | -3.96660 | 2474 ft | 119 kts | 55° |
| 2026-05-05 18:15 | 50.48350 | -3.95591 | 2475 ft | 119 kts | 55° |
| 2026-05-05 18:15 | 50.48819 | -3.94521 | 2478 ft | 119 kts | 56° |
| 2026-05-05 18:16 | 50.49294 | -3.93438 | 2479 ft | 119 kts | 55° |
| 2026-05-05 18:16 | 50.49762 | -3.92368 | 2477 ft | 119 kts | 55° |
| 2026-05-05 18:16 | 50.50228 | -3.91300 | 2480 ft | 119 kts | 55° |
| 2026-05-05 18:16 | 50.50699 | -3.90223 | 2481 ft | 120 kts | 55° |
| 2026-05-05 18:17 | 50.51167 | -3.89149 | 2482 ft | 119 kts | 55° |
| 2026-05-05 18:17 | 50.51639 | -3.88067 | 2484 ft | 119 kts | 55° |
| 2026-05-05 18:17 | 50.52107 | -3.86995 | 2489 ft | 119 kts | 55° |
| 2026-05-05 18:17 | 50.52582 | -3.85907 | 2488 ft | 119 kts | 55° |
| 2026-05-05 18:18 | 50.53049 | -3.84836 | 2488 ft | 120 kts | 55° |
| 2026-05-05 18:18 | 50.53517 | -3.83762 | 2486 ft | 120 kts | 55° |
| 2026-05-05 18:18 | 50.53987 | -3.82683 | 2491 ft | 119 kts | 55° |
| 2026-05-05 18:18 | 50.54461 | -3.81592 | 2493 ft | 120 kts | 55° |
| 2026-05-05 18:19 | 50.54927 | -3.80518 | 2490 ft | 120 kts | 55° |
| 2026-05-05 18:19 | 50.55395 | -3.79444 | 2492 ft | 119 kts | 55° |
| 2026-05-05 18:19 | 50.55868 | -3.78355 | 2494 ft | 119 kts | 55° |
| 2026-05-05 18:19 | 50.56333 | -3.77285 | 2493 ft | 119 kts | 55° |
| 2026-05-05 18:20 | 50.56804 | -3.76201 | 2500 ft | 119 kts | 55° |
| 2026-05-05 18:20 | 50.57270 | -3.75124 | 2497 ft | 120 kts | 55° |
| 2026-05-05 18:20 | 50.57739 | -3.74041 | 2501 ft | 120 kts | 55° |
| 2026-05-05 18:20 | 50.58208 | -3.72961 | 2500 ft | 120 kts | 55° |
| 2026-05-05 18:21 | 50.58682 | -3.71866 | 2502 ft | 120 kts | 55° |
| 2026-05-05 18:21 | 50.59146 | -3.70797 | 2500 ft | 120 kts | 55° |
| 2026-05-05 18:21 | 50.59616 | -3.69713 | 2500 ft | 119 kts | 55° |
| 2026-05-05 18:21 | 50.60083 | -3.68636 | 2499 ft | 120 kts | 55° |
| 2026-05-05 18:22 | 50.60554 | -3.67548 | 2497 ft | 119 kts | 55° |
| 2026-05-05 18:22 | 50.61021 | -3.66467 | 2499 ft | 119 kts | 55° |
| 2026-05-05 18:22 | 50.61489 | -3.65383 | 2502 ft | 119 kts | 55° |
| 2026-05-05 18:22 | 50.61953 | -3.64309 | 2502 ft | 120 kts | 55° |
| 2026-05-05 18:23 | 50.62426 | -3.63214 | 2501 ft | 120 kts | 55° |
| 2026-05-05 18:23 | 50.62891 | -3.62134 | 2501 ft | 119 kts | 55° |
| 2026-05-05 18:23 | 50.63357 | -3.61056 | 2501 ft | 119 kts | 55° |
| 2026-05-05 18:23 | 50.63826 | -3.59970 | 2503 ft | 119 kts | 55° |
| 2026-05-05 18:24 | 50.64292 | -3.58889 | 2501 ft | 119 kts | 55° |
| 2026-05-05 18:24 | 50.64762 | -3.57800 | 2439 ft | 124 kts | 55° |
| 2026-05-05 18:24 | 50.65258 | -3.56647 | 2211 ft | 128 kts | 56° |
| 2026-05-05 18:24 | 50.65758 | -3.55477 | 1978 ft | 128 kts | 56° |
| 2026-05-05 18:25 | 50.66255 | -3.54314 | 1746 ft | 126 kts | 56° |
| 2026-05-05 18:25 | 50.66576 | -3.53560 | 1585 ft | 121 kts | 56° |
| 2026-05-05 18:25 | 50.67189 | -3.52127 | 1269 ft | 117 kts | 56° |
| 2026-05-05 18:25 | 50.67638 | -3.51074 | 1056 ft | 114 kts | 56° |
| 2026-05-05 18:26 | 50.68051 | -3.50112 | 1100 ft | 102 kts | 56° |
| 2026-05-05 18:26 | 50.68446 | -3.49198 | 1108 ft | 100 kts | 55° |
| 2026-05-05 18:26 | 50.68859 | -3.48298 | 1109 ft | 104 kts | 45° |
| 2026-05-05 18:26 | 50.69510 | -3.47776 | 1111 ft | 106 kts | 16° |
| 2026-05-05 18:27 | 50.70251 | -3.47640 | 1109 ft | 108 kts | 4° |
| 2026-05-05 18:27 | 50.70998 | -3.47579 | 1107 ft | 108 kts | 3° |
| 2026-05-05 18:27 | 50.71743 | -3.47524 | 1096 ft | 102 kts | 4° |
| 2026-05-05 18:27 | 50.72428 | -3.47392 | 894 ft | 90 kts | 26° |
| 2026-05-05 18:28 | 50.72753 | -3.45739 | 447 ft | 78 kts | 77° |
| 2026-05-05 18:28 | 50.72883 | -3.44907 | 354 ft | 77 kts | 75° |
| 2026-05-05 18:28 | 50.73002 | -3.44136 | 308 ft | 66 kts | 75° |
| 2026-05-05 18:29 | 50.73107 | -3.43464 | 221 ft | 62 kts | 73° |
| 2026-05-05 18:29 | 50.73209 | -3.42799 | 144 ft | 61 kts | 75° |
| 2026-05-05 18:29 | 50.73308 | -3.42161 | 90 ft | 57 kts | 73° |
| 2026-05-05 18:29 | 50.73405 | -3.41543 | 98 ft | 68 kts | 72° |
| 2026-05-05 18:30 | 50.73537 | -3.40805 | 327 ft | 72 kts | 71° |
| 2026-05-05 18:30 | 50.73676 | -3.40014 | 541 ft | 80 kts | 79° |
| 2026-05-05 18:30 | 50.73637 | -3.39076 | 770 ft | 85 kts | 87° |
| 2026-05-05 18:30 | 50.73644 | -3.38134 | 982 ft | 90 kts | 92° |
| 2026-05-05 18:31 | 50.73587 | -3.37133 | 1193 ft | 93 kts | 90° |
| 2026-05-05 18:31 | 50.73554 | -3.36096 | 1401 ft | 95 kts | 91° |
| 2026-05-05 18:31 | 50.73516 | -3.35058 | 1605 ft | 96 kts | 91° |
| 2026-05-05 18:31 | 50.73476 | -3.34004 | 1810 ft | 96 kts | 91° |
| 2026-05-05 18:32 | 50.73436 | -3.32959 | 2014 ft | 96 kts | 91° |
| 2026-05-05 18:32 | 50.73395 | -3.31884 | 2110 ft | 106 kts | 92° |
| 2026-05-05 18:32 | 50.73348 | -3.30653 | 2091 ft | 115 kts | 92° |
| 2026-05-05 18:32 | 50.73299 | -3.29381 | 2086 ft | 118 kts | 92° |
| 2026-05-05 18:33 | 50.73248 | -3.28085 | 2083 ft | 118 kts | 92° |
| 2026-05-05 18:33 | 50.73198 | -3.26793 | 2082 ft | 118 kts | 92° |
| 2026-05-05 18:33 | 50.73147 | -3.25503 | 2079 ft | 118 kts | 92° |
| 2026-05-05 18:33 | 50.73096 | -3.24191 | 2082 ft | 118 kts | 92° |
| 2026-05-05 18:34 | 50.73045 | -3.22894 | 2083 ft | 119 kts | 92° |
| 2026-05-05 18:34 | 50.72993 | -3.21601 | 2083 ft | 119 kts | 92° |
| 2026-05-05 18:34 | 50.72942 | -3.20311 | 2082 ft | 119 kts | 92° |
| 2026-05-05 18:34 | 50.72890 | -3.18995 | 2082 ft | 118 kts | 92° |
| 2026-05-05 18:35 | 50.72839 | -3.17704 | 2081 ft | 118 kts | 92° |
| 2026-05-05 18:35 | 50.72787 | -3.16413 | 2084 ft | 118 kts | 92° |
| 2026-05-05 18:35 | 50.72736 | -3.15114 | 2085 ft | 118 kts | 92° |
| 2026-05-05 18:35 | 50.72684 | -3.13822 | 2083 ft | 119 kts | 92° |
| 2026-05-05 18:36 | 50.72646 | -3.12523 | 2085 ft | 119 kts | 91° |
| 2026-05-05 18:36 | 50.72611 | -3.11223 | 2082 ft | 119 kts | 91° |
| 2026-05-05 18:36 | 50.72574 | -3.09908 | 2084 ft | 118 kts | 91° |
| 2026-05-05 18:36 | 50.72538 | -3.08621 | 2085 ft | 119 kts | 91° |
| 2026-05-05 18:37 | 50.72501 | -3.07314 | 2085 ft | 119 kts | 91° |
| 2026-05-05 18:37 | 50.72464 | -3.06020 | 2085 ft | 119 kts | 91° |
| 2026-05-05 18:37 | 50.72426 | -3.04710 | 2083 ft | 118 kts | 91° |
| 2026-05-05 18:37 | 50.72389 | -3.03421 | 2082 ft | 118 kts | 91° |
| 2026-05-05 18:38 | 50.72351 | -3.02116 | 2083 ft | 118 kts | 91° |
| 2026-05-05 18:38 | 50.72314 | -3.00825 | 2085 ft | 119 kts | 91° |
| 2026-05-05 18:38 | 50.72277 | -2.99530 | 2084 ft | 119 kts | 91° |
| 2026-05-05 18:38 | 50.72239 | -2.98215 | 2086 ft | 119 kts | 91° |
| 2026-05-05 18:39 | 50.72202 | -2.96931 | 2087 ft | 119 kts | 91° |
| 2026-05-05 18:39 | 50.72163 | -2.95618 | 2086 ft | 119 kts | 91° |
| 2026-05-05 18:39 | 50.72126 | -2.94320 | 2089 ft | 119 kts | 91° |
| 2026-05-05 18:39 | 50.72087 | -2.93015 | 2088 ft | 119 kts | 91° |
| 2026-05-05 18:40 | 50.72049 | -2.91713 | 2089 ft | 119 kts | 91° |
| 2026-05-05 18:40 | 50.72011 | -2.90420 | 2089 ft | 119 kts | 91° |
| 2026-05-05 18:40 | 50.71973 | -2.89109 | 2089 ft | 119 kts | 91° |
| 2026-05-05 18:40 | 50.71934 | -2.87806 | 2090 ft | 119 kts | 91° |
| 2026-05-05 18:41 | 50.71896 | -2.86509 | 2091 ft | 119 kts | 91° |
| 2026-05-05 18:41 | 50.71858 | -2.85222 | 2091 ft | 118 kts | 91° |
| 2026-05-05 18:41 | 50.71818 | -2.83911 | 2092 ft | 119 kts | 91° |
| 2026-05-05 18:41 | 50.71780 | -2.82620 | 2093 ft | 118 kts | 91° |
| 2026-05-05 18:42 | 50.71740 | -2.81326 | 2092 ft | 118 kts | 91° |
| 2026-05-05 18:42 | 50.71701 | -2.80016 | 2093 ft | 118 kts | 91° |
| 2026-05-05 18:42 | 50.71661 | -2.78721 | 2094 ft | 119 kts | 91° |
| 2026-05-05 18:42 | 50.71622 | -2.77422 | 2094 ft | 119 kts | 91° |
| 2026-05-05 18:43 | 50.71582 | -2.76117 | 2096 ft | 119 kts | 91° |
| 2026-05-05 18:43 | 50.71543 | -2.74825 | 2095 ft | 119 kts | 91° |
| 2026-05-05 18:43 | 50.71503 | -2.73535 | 2094 ft | 118 kts | 91° |
| 2026-05-05 18:43 | 50.71463 | -2.72230 | 2096 ft | 118 kts | 91° |
| 2026-05-05 18:44 | 50.71423 | -2.70933 | 2096 ft | 118 kts | 91° |
| 2026-05-05 18:44 | 50.71382 | -2.69636 | 2094 ft | 119 kts | 91° |
| 2026-05-05 18:44 | 50.71343 | -2.68340 | 2094 ft | 119 kts | 91° |
| 2026-05-05 18:44 | 50.71302 | -2.67044 | 2093 ft | 118 kts | 91° |
| 2026-05-05 18:45 | 50.71261 | -2.65735 | 2092 ft | 118 kts | 91° |
| 2026-05-05 18:45 | 50.71221 | -2.64442 | 2092 ft | 118 kts | 91° |
| 2026-05-05 18:45 | 50.71180 | -2.63149 | 2092 ft | 119 kts | 92° |
| 2026-05-05 18:45 | 50.71127 | -2.61841 | 2092 ft | 119 kts | 92° |
| 2026-05-05 18:46 | 50.71074 | -2.60548 | 2089 ft | 118 kts | 92° |
| 2026-05-05 18:46 | 50.71020 | -2.59245 | 2090 ft | 118 kts | 92° |
| 2026-05-05 18:46 | 50.70966 | -2.57959 | 2092 ft | 118 kts | 92° |
| 2026-05-05 18:46 | 50.70912 | -2.56657 | 2092 ft | 119 kts | 92° |
| 2026-05-05 18:47 | 50.70858 | -2.55351 | 2091 ft | 118 kts | 92° |
| 2026-05-05 18:47 | 50.70804 | -2.54068 | 2091 ft | 119 kts | 92° |
| 2026-05-05 18:47 | 50.70749 | -2.52759 | 2090 ft | 119 kts | 92° |
| 2026-05-05 18:47 | 50.70694 | -2.51461 | 2088 ft | 118 kts | 92° |
| 2026-05-05 18:48 | 50.70640 | -2.50169 | 2089 ft | 119 kts | 92° |
| 2026-05-05 18:48 | 50.70586 | -2.48870 | 2090 ft | 118 kts | 92° |
| 2026-05-05 18:48 | 50.70530 | -2.47574 | 2090 ft | 118 kts | 92° |
| 2026-05-05 18:48 | 50.70475 | -2.46283 | 2091 ft | 118 kts | 92° |
| 2026-05-05 18:49 | 50.70419 | -2.44972 | 2091 ft | 118 kts | 92° |
| 2026-05-05 18:49 | 50.70363 | -2.43656 | 2007 ft | 123 kts | 92° |
| 2026-05-05 18:49 | 50.70306 | -2.42327 | 1992 ft | 120 kts | 92° |
| 2026-05-05 18:49 | 50.70250 | -2.41016 | 1997 ft | 119 kts | 92° |
| 2026-05-05 18:50 | 50.70194 | -2.39718 | 1998 ft | 118 kts | 92° |
| 2026-05-05 18:50 | 50.70138 | -2.38430 | 1999 ft | 118 kts | 92° |
| 2026-05-05 18:50 | 50.70081 | -2.37120 | 1999 ft | 118 kts | 92° |
| 2026-05-05 18:50 | 50.70026 | -2.35830 | 2000 ft | 118 kts | 92° |
| 2026-05-05 18:51 | 50.69970 | -2.34540 | 2000 ft | 118 kts | 93° |
| 2026-05-05 18:51 | 50.69913 | -2.33222 | 1907 ft | 124 kts | 93° |
| 2026-05-05 18:51 | 50.69852 | -2.31841 | 1774 ft | 126 kts | 93° |
| 2026-05-05 18:51 | 50.69794 | -2.30507 | 1800 ft | 120 kts | 93° |
| 2026-05-05 18:52 | 50.69737 | -2.29210 | 1835 ft | 116 kts | 93° |
| 2026-05-05 18:52 | 50.69680 | -2.27916 | 1830 ft | 118 kts | 93° |
| 2026-05-05 18:52 | 50.69624 | -2.26624 | 1828 ft | 118 kts | 93° |
| 2026-05-05 18:52 | 50.69567 | -2.25329 | 1828 ft | 118 kts | 93° |
| 2026-05-05 18:53 | 50.69509 | -2.24036 | 1828 ft | 118 kts | 93° |
| 2026-05-05 18:53 | 50.69452 | -2.22747 | 1828 ft | 118 kts | 93° |
| 2026-05-05 18:53 | 50.69394 | -2.21451 | 1828 ft | 118 kts | 93° |
| 2026-05-05 18:53 | 50.69337 | -2.20148 | 1829 ft | 118 kts | 93° |
| 2026-05-05 18:54 | 50.69279 | -2.18862 | 1829 ft | 118 kts | 93° |
| 2026-05-05 18:54 | 50.69221 | -2.17564 | 1829 ft | 118 kts | 93° |
| 2026-05-05 18:54 | 50.69163 | -2.16257 | 1830 ft | 118 kts | 93° |
| 2026-05-05 18:54 | 50.69106 | -2.14974 | 1830 ft | 118 kts | 93° |
| 2026-05-05 18:55 | 50.69047 | -2.13680 | 1830 ft | 118 kts | 93° |
| 2026-05-05 18:55 | 50.68989 | -2.12371 | 1830 ft | 118 kts | 93° |
| 2026-05-05 18:55 | 50.68931 | -2.11080 | 1822 ft | 119 kts | 93° |
| 2026-05-05 18:55 | 50.68871 | -2.09768 | 1803 ft | 119 kts | 93° |
| 2026-05-05 18:56 | 50.68813 | -2.08478 | 1805 ft | 118 kts | 93° |
| 2026-05-05 18:56 | 50.68755 | -2.07189 | 1807 ft | 118 kts | 93° |
| 2026-05-05 18:56 | 50.68695 | -2.05895 | 1806 ft | 118 kts | 93° |
| 2026-05-05 18:56 | 50.68637 | -2.04598 | 1807 ft | 118 kts | 93° |
| 2026-05-05 18:57 | 50.68578 | -2.03301 | 1807 ft | 118 kts | 93° |
| 2026-05-05 18:57 | 50.68519 | -2.02011 | 1807 ft | 118 kts | 93° |
| 2026-05-05 18:57 | 50.68459 | -2.00712 | 1807 ft | 118 kts | 93° |
| 2026-05-05 18:57 | 50.68400 | -1.99407 | 1807 ft | 118 kts | 93° |
| 2026-05-05 18:58 | 50.68341 | -1.98118 | 1808 ft | 118 kts | 93° |
| 2026-05-05 18:58 | 50.68282 | -1.96821 | 1808 ft | 118 kts | 93° |
| 2026-05-05 18:58 | 50.68320 | -1.95547 | 1806 ft | 118 kts | 68° |
| 2026-05-05 18:58 | 50.68896 | -1.94662 | 1810 ft | 120 kts | 22° |
| 2026-05-05 18:59 | 50.69763 | -1.94607 | 1627 ft | 130 kts | 351° |
| 2026-05-05 18:59 | 50.70661 | -1.94946 | 1422 ft | 134 kts | 346° |
| 2026-05-05 18:59 | 50.71566 | -1.95322 | 1214 ft | 135 kts | 346° |
| 2026-05-05 18:59 | 50.72435 | -1.95684 | 1200 ft | 125 kts | 346° |
| 2026-05-05 19:00 | 50.73270 | -1.96035 | 1207 ft | 122 kts | 346° |
| 2026-05-05 19:00 | 50.74081 | -1.96377 | 1209 ft | 121 kts | 346° |
| 2026-05-05 19:00 | 50.74891 | -1.96720 | 1210 ft | 121 kts | 346° |
| 2026-05-05 19:00 | 50.75716 | -1.96659 | 1199 ft | 119 kts | 25° |
| 2026-05-05 19:01 | 50.76274 | -1.95760 | 1200 ft | 117 kts | 65° |
| 2026-05-05 19:01 | 50.76490 | -1.94539 | 1208 ft | 114 kts | 77° |
| 2026-05-05 19:01 | 50.76612 | -1.93302 | 1156 ft | 115 kts | 88° |
| 2026-05-05 19:01 | 50.76659 | -1.92069 | 1032 ft | 111 kts | 75° |
| 2026-05-05 19:02 | 50.76871 | -1.90918 | 911 ft | 107 kts | 73° |
| 2026-05-05 19:02 | 50.77071 | -1.89786 | 797 ft | 102 kts | 74° |
| 2026-05-05 19:02 | 50.77231 | -1.88853 | 710 ft | 79 kts | 73° |
| 2026-05-05 19:02 | 50.77372 | -1.88028 | 548 ft | 75 kts | 74° |
| 2026-05-05 19:03 | 50.77499 | -1.87283 | 439 ft | 66 kts | 74° |
| 2026-05-05 19:03 | 50.77616 | -1.86595 | 306 ft | 65 kts | 75° |
| 2026-05-05 19:03 | 50.77731 | -1.85909 | 183 ft | 64 kts | 75° |
| 2026-05-05 19:03 | 50.77842 | -1.85238 | 96 ft | 62 kts | 74° |
| 2026-05-05 19:04 | 50.77948 | -1.84616 | 37 ft | 50 kts | 75° |
| 2026-05-05 19:04 | 50.78026 | -1.84161 | 37 ft | 36 kts | 73° |
| 2026-05-05 19:04 | 50.78056 | -1.83971 | 37 ft | 0 kts | 74° |
| 2026-05-05 19:04 | 50.78070 | -1.83932 | 37 ft | 10 kts | 42° |
| 2026-05-05 19:05 | 50.78128 | -1.83927 | 37 ft | 6 kts | 344° |
| 2026-05-05 19:05 | 50.78157 | -1.83940 | 37 ft | 3 kts | 345° |
| 2026-05-05 19:05 | 50.78198 | -1.83957 | 37 ft | 8 kts | 345° |
| 2026-05-05 19:05 | 50.78273 | -1.83989 | 37 ft | 13 kts | 346° |
| 2026-05-05 19:06 | 50.78375 | -1.84031 | 37 ft | 16 kts | 346° |
| 2026-05-05 19:06 | 50.78498 | -1.84082 | 37 ft | 19 kts | 344° |
| 2026-05-05 19:06 | 50.78639 | -1.84140 | 37 ft | 19 kts | 348° |
| 2026-05-05 19:06 | 50.78749 | -1.84180 | 37 ft | 12 kts | 349° |
| 2026-05-05 19:07 | 50.78827 | -1.84241 | 37 ft | 12 kts | 302° |
| 2026-05-05 19:07 | 50.78814 | -1.84336 | 37 ft | 6 kts | 218° |
| 2026-05-05 19:07 | 50.78795 | -1.84389 | 36 ft | 6 kts | 257° |
| 2026-05-05 19:07 | 50.78777 | -1.84467 | 37 ft | 9 kts | 210° |
| 2026-05-05 19:08 | 50.78708 | -1.84455 | 37 ft | 11 kts | 170° |
| 2026-05-05 19:08 | 50.78642 | -1.84476 | 37 ft | 7 kts | 208° |
| 2026-05-05 19:08 | 50.78610 | -1.84489 | 37 ft | 3 kts | 193° |
| 2026-05-05 19:08 | 50.78597 | -1.84504 | 37 ft | 2 kts | 167° |
| 2026-05-05 19:09 | 50.78596 | -1.84501 | 37 ft | 0 kts | 78° |